Flight Track Log - Related Links

Times and Time Zones

All times are in EDT time to prevent confusion due to time zone crossing. See the EJA929 flight status page for this flight to view local times or setup timezone preferences in your user account.


Time Position Orientation Groundspeed Altitude Reporting Facility
EDT Latitude Longitude Course Direction KTS MPH feet Rate Location/Type
Wed 02:29:20 PM 32.3667 -64.6833 287° West 240 276 2,000  Level New York Oceanic (ODAPS)
Wed 02:34:13 PM 32.4667 -65.0667 287° West 399 459 14,000  Climbing New York Oceanic (ODAPS)
Wed 02:35:00 PM 32.5051 -65.2171 287° West 240 276 2,000 -6,729 Descending FlightAware Transoceanic
Wed 02:36:00 PM 32.5433 -65.3677 287° West 240 276 2,000  Level FlightAware Transoceanic
Wed 02:37:00 PM 32.5813 -65.5184 287° West 240 276 2,000 11,215 Level FlightAware Transoceanic
Wed 02:37:47 PM 32.4667 -65.0667 287° West 399 459 22,000  Climbing New York Oceanic (ODAPS)
Wed 02:38:00 PM 32.6192 -65.6693 287° West 240 276 2,000 -16,438 Descending FlightAware Transoceanic
Wed 02:39:00 PM 32.6568 -65.8203 286° West 240 276 2,000 6,000 Level FlightAware Transoceanic
Wed 02:40:00 PM 32.6568 -65.8203 286° West 399 459 14,000 20,219 Climbing FlightAware Transoceanic
Wed 02:40:13 PM 32.4667 -65.0667 287° West 399 459 26,600  Climbing New York Oceanic (ODAPS)
Wed 02:41:00 PM 32.6881 -65.9462 286° West 399 459 14,000 -7,065 Descending FlightAware Transoceanic
Wed 02:42:00 PM 32.7192 -66.0722 286° West 399 459 14,000 10,588 Level FlightAware Transoceanic
Wed 02:42:42 PM 32.4667 -65.0667 287° West 399 459 32,000  Climbing New York Oceanic (ODAPS)
Wed 02:43:00 PM 32.7502 -66.1983 286° West 399 459 14,000 -7,692 Descending FlightAware Transoceanic
Wed 02:44:00 PM 32.7811 -66.3245 286° West 399 459 22,000 4,000 Climbing FlightAware Transoceanic
Wed 02:45:00 PM 32.8119 -66.4507 286° West 399 459 22,000 2,300 Level FlightAware Transoceanic
Wed 02:46:00 PM 32.8425 -66.5771 286° West 399 459 26,600 11,250 Climbing FlightAware Transoceanic
Wed 02:46:36 PM 32.4667 -65.0667 287° West 399 459 40,000 14,889 Climbing New York Oceanic (ODAPS)
Wed 02:46:54 PM 32.4667 -65.0667 287° West 383 441 40,000 -33,500 Level New York Oceanic (ODAPS)
Wed 02:47:00 PM 32.8730 -66.7035 286° West 399 459 26,600 1,935 Descending FlightAware Transoceanic
Wed 02:47:25 PM 32.4667 -65.0667 287° West 383 441 41,000  Climbing New York Oceanic (ODAPS)
Wed 02:48:00 PM 32.9034 -66.8300 286° West 399 459 26,600 -5,684 Descending FlightAware Transoceanic
Wed 02:49:00 PM 32.9336 -66.9566 286° West 399 459 32,000 2,700 Climbing FlightAware Transoceanic
Wed 02:50:00 PM 32.9637 -67.0833 286° West 399 459 32,000  Level FlightAware Transoceanic
Wed 02:51:00 PM 32.9937 -67.2101 286° West 399 459 32,000 4,000 Level FlightAware Transoceanic
Wed 02:52:00 PM 33.0235 -67.3370 286° West 399 459 40,000 4,500 Climbing FlightAware Transoceanic
Wed 02:53:00 PM 33.0307 -67.3674 286° West 383 441 41,000 500 Climbing FlightAware Transoceanic
Wed 02:54:00 PM 33.0592 -67.4893 286° West 383 441 41,000  Level FlightAware Transoceanic
Wed 02:55:00 PM 33.0876 -67.6113 285° West 383 441 41,000  Level FlightAware Transoceanic
Wed 02:56:00 PM 33.1159 -67.7334 285° West 383 441 41,000  Level FlightAware Transoceanic
Wed 02:57:00 PM 33.1440 -67.8555 285° West 383 441 41,000  Level FlightAware Transoceanic
Wed 02:58:00 PM 33.1721 -67.9777 285° West 383 441 41,000  Level FlightAware Transoceanic
Wed 02:58:24 PM 33.2000 -68.1000 282° West 514 592 41,000  Level New York Oceanic (ODAPS)
Wed 02:59:00 PM 33.2000 -68.1000 282° West 383 441 41,000  Level FlightAware Transoceanic
Wed 03:00:00 PM 33.2303 -68.2716 282° West 383 441 41,000  Level FlightAware Transoceanic
Wed 03:00:22 PM 33.2000 -68.1000 282° West 333 383 41,000  Level New York Oceanic (ODAPS)
Wed 03:01:00 PM 33.2604 -68.4434 282° West 383 441 41,000  Level FlightAware Transoceanic
Wed 03:02:00 PM 33.2903 -68.6152 282° West 383 441 41,000  Level FlightAware Transoceanic
Wed 03:03:00 PM 33.3199 -68.7872 282° West 383 441 41,000  Level FlightAware Transoceanic
Wed 03:03:19 PM 33.2000 -68.1000 282° West 499 574 41,000  Level New York Oceanic (ODAPS)
Wed 03:04:00 PM 33.4645 -69.6489 281° West 514 592 41,000  Level FlightAware Transoceanic
Wed 03:05:00 PM 33.4927 -69.8215 281° West 514 592 41,000  Level FlightAware Transoceanic
Wed 03:06:00 PM 33.4052 -69.2911 281° West 333 383 41,000  Level FlightAware Transoceanic
Wed 03:07:00 PM 33.4233 -69.3997 281° West 333 383 41,000  Level FlightAware Transoceanic
Wed 03:08:00 PM 33.4413 -69.5083 281° West 333 383 41,000  Level FlightAware Transoceanic
Wed 03:09:00 PM 33.5819 -70.3787 281° West 499 574 41,000  Level FlightAware Transoceanic
Wed 03:10:00 PM 33.6076 -70.5422 281° West 499 574 41,000  Level FlightAware Transoceanic
Wed 03:11:00 PM 33.6330 -70.7058 281° West 499 574 41,000  Level FlightAware Transoceanic
Wed 03:12:00 PM 33.6583 -70.8695 280° West 499 574 41,000  Level FlightAware Transoceanic
Wed 03:13:00 PM 33.6833 -71.0333 288° West 499 574 41,000  Level FlightAware Transoceanic
Wed 03:13:43 PM 33.6833 -71.0333 288° West 437 503 41,000  Level New York Oceanic (ODAPS)
Wed 03:14:00 PM 33.7252 -71.1929 287° West 499 574 41,000  Level FlightAware Transoceanic
Wed 03:15:00 PM 33.7668 -71.3526 287° West 499 574 41,000  Level FlightAware Transoceanic
Wed 03:16:00 PM 33.8083 -71.5125 287° West 499 574 41,000  Level FlightAware Transoceanic
Wed 03:17:00 PM 33.8495 -71.6725 287° West 499 574 41,000  Level FlightAware Transoceanic
Wed 03:18:00 PM 33.8906 -71.8327 287° West 499 574 41,000  Level FlightAware Transoceanic
Wed 03:19:00 PM 33.9314 -71.9930 287° West 499 574 41,000  Level FlightAware Transoceanic
Wed 03:20:00 PM 33.9945 -72.2427 287° West 437 503 41,000  Level FlightAware Transoceanic
Wed 03:21:00 PM 34.0326 -72.3945 287° West 437 503 41,000  Level FlightAware Transoceanic
Wed 03:22:00 PM 34.0704 -72.5464 287° West 437 503 41,000  Level FlightAware Transoceanic
Wed 03:23:00 PM 34.1081 -72.6985 287° West 437 503 41,000  Level FlightAware Transoceanic
Wed 03:24:00 PM 34.1456 -72.8507 287° West 437 503 41,000  Level FlightAware Transoceanic
Wed 03:25:00 PM 34.1829 -73.0030 286° West 437 503 41,000  Level FlightAware Transoceanic
Wed 03:25:14 PM 34.1603 -72.9297 286° West 516 594 41,000  Level New York Center
Wed 03:26:00 PM 34.2201 -73.1555 286° West 437 503 41,000  Level FlightAware Transoceanic
Wed 03:26:16 PM 34.2031 -73.0839 289° West 505 581 41,000  Level New York Center
Wed 03:27:00 PM 34.2570 -73.3081 286° West 437 503 41,000  Level FlightAware Transoceanic
Wed 03:27:17 PM 34.2458 -73.2383 289° West 500 575 41,000  Level New York Center
Wed 03:28:15 PM 34.2819 -73.3978 285° West 500 575 41,000  Level New York Center
Wed 03:29:15 PM 34.3219 -73.5575 287° West 500 575 41,000  Level New York Center
Wed 03:30:15 PM 34.3619 -73.7122 287° West 500 575 41,000  Level New York Center
Wed 03:31:16 PM 34.4483 -73.8389 310° West 476 548 41,000  Level New York Center
Wed 03:32:16 PM 34.5408 -73.9633 312° West 487 560 41,000  Level New York Center
Wed 03:33:17 PM 34.6397 -74.0808 316° Northwest 493 567 41,000  Level New York Center
Wed 03:34:17 PM 34.7303 -74.1958 314° West 487 560 41,000  Level New York Center
Wed 03:35:15 PM 34.8228 -74.3111 314° West 476 548 41,000  Level New York Center
Wed 03:36:16 PM 34.9133 -74.4217 315° West 470 541 41,000  Level New York Center
Wed 03:37:17 PM 35.0036 -74.5372 314° West 470 541 41,000  Level New York Center
Wed 03:39:08 PM 35.1681 -74.7614 312° West 471 542 41,000  Level Washington Center
Wed 03:40:08 PM 35.2628 -74.8697 317° Northwest 466 536 41,000  Level Washington Center
Wed 03:41:06 PM 35.3531 -74.9911 312° West 472 543 41,000  Level Washington Center
Wed 03:42:08 PM 35.4433 -75.1103 313° West 472 543 41,000  Level Washington Center
Wed 03:43:08 PM 35.5336 -75.2272 314° West 472 543 41,000  Level Washington Center
Wed 03:44:06 PM 35.6258 -75.3494 313° West 472 543 41,000 -605 Level Washington Center
Wed 03:45:07 PM 35.7136 -75.4617 314° West 472 543 39,800 -1,140 Descending Washington Center
Wed 03:46:07 PM 35.7972 -75.5742 313° West 458 527 38,700 -1,041 Descending Washington Center
Wed 03:47:08 PM 35.8867 -75.6817 316° Northwest 447 514 37,700 -958 Descending Washington Center
Wed 03:48:06 PM 35.9722 -75.8000 312° West 452 520 36,800 -915 Descending Washington Center
Wed 03:49:06 PM 36.0597 -75.9131 314° West 452 520 35,900 -893 Descending Washington Center
Wed 03:50:07 PM 36.1447 -76.0292 312° West 452 520 35,000 -1,770 Descending Washington Center
Wed 03:51:08 PM 36.2383 -76.1381 317° Northwest 452 520 32,300 -2,479 Descending Washington Center
Wed 03:52:08 PM 36.3381 -76.2289 324° Northwest 452 520 30,000 -1,916 Descending Washington Center
Wed 03:53:07 PM 36.4333 -76.3175 323° Northwest 444 511 28,500 -1,500 Descending Washington Center
Wed 03:54:08 PM 36.5247 -76.4036 323° Northwest 434 499 27,000 -1,537 Descending Washington Center
Wed 03:55:08 PM 36.6200 -76.4900 324° Northwest 429 494 25,400 -1,017 Descending Washington Center
Wed 03:56:06 PM 36.6925 -76.5606 322° Northwest 429 494 25,000 -203 Descending Washington Center
Wed 03:57:06 PM 36.7981 -76.6553 324° Northwest 429 494 25,000  Level Washington Center
Wed 03:58:07 PM 36.8953 -76.7475 323° Northwest 434 499 25,000  Level Washington Center
Wed 03:59:07 PM 36.9864 -76.8322 323° Northwest 428 493 25,000  Level Washington Center
Wed 04:00:08 PM 37.0772 -76.9169 323° Northwest 414 476 25,000  Level Washington Center
Wed 04:01:06 PM 37.1428 -77.0197 309° West 396 456 25,000  Level Washington Center
Wed 04:02:07 PM 37.2103 -77.1278 308° West 390 449 25,000 -694 Level Washington Center
Wed 04:03:07 PM 37.2794 -77.2492 306° West 390 449 23,600 -1,140 Descending Washington Center
Wed 04:04:08 PM 37.3447 -77.3553 308° West 390 449 22,700 -793 Descending Washington Center
Wed 04:05:08 PM 37.4142 -77.4536 312° West 384 442 22,000 -356 Descending Washington Center
Wed 04:06:06 PM 37.5222 -77.4825 348° North 364 419 22,000 -655 Level Washington Center
Wed 04:07:07 PM 37.6308 -77.4744 North 369 425 20,700 -1,587 Descending Washington Center
Wed 04:08:07 PM 37.7331 -77.4667 North 369 425 18,800 -1,884 Descending Washington Center
Wed 04:09:08 PM 37.8333 -77.4611 North 363 418 16,900 -1,835 Descending Washington Center
Wed 04:10:08 PM 37.9336 -77.4558 North 363 418 15,100 -1,881 Descending Washington Center
Wed 04:11:06 PM 38.0253 -77.4503 North 356 410 13,200 -1,831 Descending Washington Center
Wed 04:12:06 PM 38.1103 -77.4867 341° North 326 375 11,500 -1,537 Descending Washington Center
Wed 04:13:07 PM 38.1836 -77.4594 16° North 272 313 10,100 -689 Descending Washington Center
Wed 04:14:08 PM 38.2533 -77.4056 31° Northeast 272 313 10,100 -99 Level Washington Center
Wed 04:15:08 PM 38.3292 -77.3597 25° Northeast 286 329 9,900 -915 Descending Washington Center
Wed 04:16:06 PM 38.4125 -77.3564 North 291 335 8,300 -1,613 Descending Washington Center
Wed 04:17:07 PM 38.4958 -77.3636 356° North 291 335 6,700 -1,574 Descending Washington Center
Wed 04:18:08 PM 38.5750 -77.3683 357° North 291 335 5,100 -843 Descending Washington Center
Wed 04:19:08 PM 38.6544 -77.3647 North 286 329 5,000 -203 Descending Washington Center
Wed 04:20:06 PM 38.7336 -77.3614 North 286 329 4,700 -504 Descending Washington Center
Wed 04:21:07 PM 38.8108 -77.3581 North 286 329 4,000 -318 Descending Washington Center
Wed 04:22:18 PM 38.9000 -77.3500 North 274 315 4,000  Level Potomac TRACON
Wed 04:23:24 PM 38.9833 -77.3500 360° North 235 270 4,000  Level Potomac TRACON
Wed 04:24:24 PM 39.0500 -77.3500 360° North 233 268 4,000  Level Potomac TRACON
Wed 04:25:24 PM 39.1167 -77.3500 360° North 234 269 4,000  Level Potomac TRACON
Wed 04:26:18 PM 39.1667 -77.3500 360° North 218 251 4,000  Level Potomac TRACON
Wed 04:27:18 PM 39.2333 -77.3333 11° North 208 239 4,000 -250 Level Potomac TRACON
Wed 04:28:18 PM 39.2500 -77.3833 293° West 207 238 3,500 -550 Descending Potomac TRACON
Wed 04:29:18 PM 39.2000 -77.4167 207° Southwest 164 189 2,900 -595 Descending Potomac TRACON
Wed 04:30:19 PM 39.1500 -77.4333 194° South 167 192 2,300 -446 Descending Potomac TRACON
Wed 04:31:19 PM 39.1167 -77.4333 180° South 168 193 2,000 -157 Descending Potomac TRACON
Wed 04:32:14 PM 39.0667 -77.4333 180° South 173 199 2,000 -209 Level Potomac TRACON
Wed 04:33:14 PM 39.0167 -77.4333 180° South 165 190 1,600 -550 Descending Potomac TRACON
Wed 04:34:14 PM 38.9833 -77.4333 180° South 131 151 900 -700 Descending Potomac TRACON
Wed 04:36:00 PM 38.9474 -77.4599 195° South  Level Estimated

Login

Don't have an account? Register now (free) for customized features, flight alerts, and more!